sensor_id;sensor_type;location;lat;lon;timestamp;P1;durP1;ratioP1;P2;durP2;ratioP2
6269;SDS011;3168;51.684;6.954;2023-08-06T00:00:39;5.67;;;5.27;;
6269;SDS011;3168;51.684;6.954;2023-08-06T00:03:05;5.13;;;4.73;;
6269;SDS011;3168;51.684;6.954;2023-08-06T00:05:30;5.37;;;4.97;;
6269;SDS011;3168;51.684;6.954;2023-08-06T00:07:57;6.33;;;5.83;;
6269;SDS011;3168;51.684;6.954;2023-08-06T00:10:23;4.30;;;4.00;;
6269;SDS011;3168;51.684;6.954;2023-08-06T00:12:48;7.30;;;4.93;;
6269;SDS011;3168;51.684;6.954;2023-08-06T00:15:14;6.43;;;5.63;;
6269;SDS011;3168;51.684;6.954;2023-08-06T00:17:40;4.90;;;4.67;;
6269;SDS011;3168;51.684;6.954;2023-08-06T00:20:06;9.53;;;6.50;;
6269;SDS011;3168;51.684;6.954;2023-08-06T00:22:33;5.73;;;5.27;;
6269;SDS011;3168;51.684;6.954;2023-08-06T00:24:58;10.60;;;6.20;;
6269;SDS011;3168;51.684;6.954;2023-08-06T00:27:24;5.27;;;4.97;;
6269;SDS011;3168;51.684;6.954;2023-08-06T00:29:50;5.40;;;4.97;;
6269;SDS011;3168;51.684;6.954;2023-08-06T00:32:16;8.10;;;5.80;;
6269;SDS011;3168;51.684;6.954;2023-08-06T00:34:42;8.17;;;5.97;;
6269;SDS011;3168;51.684;6.954;2023-08-06T00:37:07;6.13;;;5.77;;
6269;SDS011;3168;51.684;6.954;2023-08-06T00:39:33;8.10;;;6.43;;
6269;SDS011;3168;51.684;6.954;2023-08-06T00:41:59;7.23;;;6.53;;
6269;SDS011;3168;51.684;6.954;2023-08-06T00:44:25;6.40;;;5.80;;
6269;SDS011;3168;51.684;6.954;2023-08-06T00:46:50;6.97;;;6.20;;
6269;SDS011;3168;51.684;6.954;2023-08-06T00:49:16;6.90;;;6.37;;
6269;SDS011;3168;51.684;6.954;2023-08-06T00:51:42;7.10;;;6.60;;
6269;SDS011;3168;51.684;6.954;2023-08-06T00:54:08;14.90;;;7.80;;
6269;SDS011;3168;51.684;6.954;2023-08-06T00:56:34;5.10;;;4.80;;
6269;SDS011;3168;51.684;6.954;2023-08-06T00:58:59;8.63;;;6.40;;
6269;SDS011;3168;51.684;6.954;2023-08-06T01:01:25;6.50;;;5.67;;
6269;SDS011;3168;51.684;6.954;2023-08-06T01:03:51;8.00;;;7.30;;
6269;SDS011;3168;51.684;6.954;2023-08-06T01:06:17;7.73;;;6.93;;
6269;SDS011;3168;51.684;6.954;2023-08-06T01:08:47;7.27;;;6.50;;
6269;SDS011;3168;51.684;6.954;2023-08-06T01:11:18;9.00;;;6.87;;
6269;SDS011;3168;51.684;6.954;2023-08-06T01:13:44;7.17;;;6.40;;
6269;SDS011;3168;51.684;6.954;2023-08-06T01:16:10;6.23;;;5.67;;
6269;SDS011;3168;51.684;6.954;2023-08-06T01:18:36;6.30;;;5.90;;
6269;SDS011;3168;51.684;6.954;2023-08-06T01:21:02;6.70;;;6.17;;
6269;SDS011;3168;51.684;6.954;2023-08-06T01:23:28;8.03;;;7.23;;
6269;SDS011;3168;51.684;6.954;2023-08-06T01:25:56;7.60;;;6.23;;
6269;SDS011;3168;51.684;6.954;2023-08-06T01:28:27;14.15;;;6.30;;
6269;SDS011;3168;51.684;6.954;2023-08-06T01:31:07;6.73;;;6.13;;
6269;SDS011;3168;51.684;6.954;2023-08-06T01:33:32;10.33;;;6.77;;
6269;SDS011;3168;51.684;6.954;2023-08-06T01:35:58;7.80;;;6.63;;
6269;SDS011;3168;51.684;6.954;2023-08-06T01:38:23;7.13;;;6.43;;
6269;SDS011;3168;51.684;6.954;2023-08-06T01:40:49;6.97;;;6.30;;
6269;SDS011;3168;51.684;6.954;2023-08-06T01:43:15;5.87;;;5.47;;
6269;SDS011;3168;51.684;6.954;2023-08-06T01:45:41;7.20;;;6.60;;
6269;SDS011;3168;51.684;6.954;2023-08-06T01:48:07;7.67;;;6.87;;
6269;SDS011;3168;51.684;6.954;2023-08-06T01:50:32;6.43;;;5.83;;
6269;SDS011;3168;51.684;6.954;2023-08-06T01:52:58;5.70;;;5.40;;
6269;SDS011;3168;51.684;6.954;2023-08-06T01:55:24;7.77;;;6.67;;
6269;SDS011;3168;51.684;6.954;2023-08-06T01:57:50;6.73;;;6.23;;
6269;SDS011;3168;51.684;6.954;2023-08-06T02:00:15;7.20;;;6.50;;
6269;SDS011;3168;51.684;6.954;2023-08-06T02:02:41;6.70;;;6.20;;
6269;SDS011;3168;51.684;6.954;2023-08-06T02:05:07;6.77;;;6.13;;
6269;SDS011;3168;51.684;6.954;2023-08-06T02:07:33;9.07;;;6.00;;
6269;SDS011;3168;51.684;6.954;2023-08-06T02:09:59;8.23;;;6.37;;
6269;SDS011;3168;51.684;6.954;2023-08-06T02:12:24;8.63;;;6.10;;
6269;SDS011;3168;51.684;6.954;2023-08-06T02:14:51;7.43;;;6.70;;
6269;SDS011;3168;51.684;6.954;2023-08-06T02:17:17;6.57;;;6.07;;
6269;SDS011;3168;51.684;6.954;2023-08-06T02:19:42;6.47;;;5.80;;
6269;SDS011;3168;51.684;6.954;2023-08-06T02:22:08;5.57;;;5.07;;
6269;SDS011;3168;51.684;6.954;2023-08-06T02:24:34;7.20;;;6.60;;
6269;SDS011;3168;51.684;6.954;2023-08-06T02:27:00;7.30;;;6.70;;
6269;SDS011;3168;51.684;6.954;2023-08-06T02:29:26;6.60;;;6.10;;
6269;SDS011;3168;51.684;6.954;2023-08-06T02:31:51;11.00;;;6.00;;
6269;SDS011;3168;51.684;6.954;2023-08-06T02:34:17;6.83;;;6.20;;
6269;SDS011;3168;51.684;6.954;2023-08-06T02:36:43;6.57;;;5.97;;
6269;SDS011;3168;51.684;6.954;2023-08-06T02:39:09;5.90;;;5.40;;
6269;SDS011;3168;51.684;6.954;2023-08-06T02:41:35;6.20;;;5.70;;
6269;SDS011;3168;51.684;6.954;2023-08-06T02:44:01;6.97;;;5.97;;
6269;SDS011;3168;51.684;6.954;2023-08-06T02:46:27;5.47;;;5.10;;
6269;SDS011;3168;51.684;6.954;2023-08-06T02:48:53;7.97;;;5.50;;
6269;SDS011;3168;51.684;6.954;2023-08-06T02:51:19;5.23;;;4.97;;
6269;SDS011;3168;51.684;6.954;2023-08-06T02:53:45;5.67;;;5.27;;
6269;SDS011;3168;51.684;6.954;2023-08-06T02:56:11;7.73;;;6.23;;
6269;SDS011;3168;51.684;6.954;2023-08-06T02:58:37;6.53;;;5.60;;
6269;SDS011;3168;51.684;6.954;2023-08-06T03:01:03;5.00;;;4.60;;
6269;SDS011;3168;51.684;6.954;2023-08-06T03:03:29;9.27;;;5.80;;
6269;SDS011;3168;51.684;6.954;2023-08-06T03:05:54;5.87;;;5.47;;
6269;SDS011;3168;51.684;6.954;2023-08-06T03:08:20;5.87;;;5.47;;
6269;SDS011;3168;51.684;6.954;2023-08-06T03:10:46;5.90;;;5.43;;
6269;SDS011;3168;51.684;6.954;2023-08-06T03:13:11;5.23;;;4.93;;
6269;SDS011;3168;51.684;6.954;2023-08-06T03:15:37;4.60;;;4.03;;
6269;SDS011;3168;51.684;6.954;2023-08-06T03:18:03;5.20;;;4.87;;
6269;SDS011;3168;51.684;6.954;2023-08-06T03:20:29;5.07;;;4.73;;
6269;SDS011;3168;51.684;6.954;2023-08-06T03:22:55;5.43;;;5.03;;
6269;SDS011;3168;51.684;6.954;2023-08-06T03:25:21;4.90;;;4.70;;
6269;SDS011;3168;51.684;6.954;2023-08-06T03:27:46;5.80;;;5.30;;
6269;SDS011;3168;51.684;6.954;2023-08-06T03:30:12;5.30;;;4.90;;
6269;SDS011;3168;51.684;6.954;2023-08-06T03:32:38;4.60;;;4.30;;
6269;SDS011;3168;51.684;6.954;2023-08-06T03:35:04;3.90;;;3.67;;
6269;SDS011;3168;51.684;6.954;2023-08-06T03:37:30;5.77;;;5.03;;
6269;SDS011;3168;51.684;6.954;2023-08-06T03:39:56;5.90;;;4.47;;
6269;SDS011;3168;51.684;6.954;2023-08-06T03:42:22;4.97;;;4.70;;
6269;SDS011;3168;51.684;6.954;2023-08-06T03:44:48;6.43;;;4.57;;
6269;SDS011;3168;51.684;6.954;2023-08-06T03:47:13;5.47;;;5.07;;
6269;SDS011;3168;51.684;6.954;2023-08-06T03:49:39;5.33;;;4.80;;
6269;SDS011;3168;51.684;6.954;2023-08-06T03:52:05;12.60;;;5.33;;
6269;SDS011;3168;51.684;6.954;2023-08-06T03:54:31;5.47;;;5.03;;
6269;SDS011;3168;51.684;6.954;2023-08-06T03:56:57;11.13;;;5.13;;
6269;SDS011;3168;51.684;6.954;2023-08-06T03:59:23;7.70;;;5.30;;
6269;SDS011;3168;51.684;6.954;2023-08-06T04:01:49;4.07;;;3.47;;
6269;SDS011;3168;51.684;6.954;2023-08-06T04:04:15;4.60;;;4.40;;
6269;SDS011;3168;51.684;6.954;2023-08-06T04:06:41;5.33;;;4.83;;
6269;SDS011;3168;51.684;6.954;2023-08-06T04:09:06;5.37;;;4.97;;
6269;SDS011;3168;51.684;6.954;2023-08-06T04:11:32;5.63;;;5.23;;
6269;SDS011;3168;51.684;6.954;2023-08-06T04:13:58;3.93;;;3.60;;
6269;SDS011;3168;51.684;6.954;2023-08-06T04:16:24;4.30;;;4.07;;
6269;SDS011;3168;51.684;6.954;2023-08-06T04:18:49;5.17;;;4.87;;
6269;SDS011;3168;51.684;6.954;2023-08-06T04:21:15;5.13;;;4.83;;
6269;SDS011;3168;51.684;6.954;2023-08-06T04:23:42;5.70;;;5.23;;
6269;SDS011;3168;51.684;6.954;2023-08-06T04:26:07;5.07;;;4.73;;
6269;SDS011;3168;51.684;6.954;2023-08-06T04:28:34;5.37;;;4.70;;
6269;SDS011;3168;51.684;6.954;2023-08-06T04:31:00;5.43;;;4.87;;
6269;SDS011;3168;51.684;6.954;2023-08-06T04:33:25;4.30;;;4.10;;
6269;SDS011;3168;51.684;6.954;2023-08-06T04:35:54;5.20;;;4.80;;
6269;SDS011;3168;51.684;6.954;2023-08-06T04:38:19;6.40;;;5.30;;
6269;SDS011;3168;51.684;6.954;2023-08-06T04:40:45;3.90;;;3.70;;
6269;SDS011;3168;51.684;6.954;2023-08-06T04:43:10;4.87;;;4.57;;
6269;SDS011;3168;51.684;6.954;2023-08-06T04:45:36;4.77;;;4.47;;
6269;SDS011;3168;51.684;6.954;2023-08-06T04:48:02;7.97;;;4.90;;
6269;SDS011;3168;51.684;6.954;2023-08-06T04:50:28;4.60;;;4.20;;
6269;SDS011;3168;51.684;6.954;2023-08-06T04:52:53;4.50;;;4.30;;
6269;SDS011;3168;51.684;6.954;2023-08-06T04:55:19;5.83;;;5.30;;
6269;SDS011;3168;51.684;6.954;2023-08-06T04:57:45;5.07;;;4.60;;
6269;SDS011;3168;51.684;6.954;2023-08-06T05:00:11;4.37;;;4.07;;
6269;SDS011;3168;51.684;6.954;2023-08-06T05:02:37;3.87;;;3.77;;
6269;SDS011;3168;51.684;6.954;2023-08-06T05:05:02;12.00;;;5.20;;
6269;SDS011;3168;51.684;6.954;2023-08-06T05:07:29;5.00;;;4.60;;
6269;SDS011;3168;51.684;6.954;2023-08-06T05:09:55;5.13;;;4.73;;
6269;SDS011;3168;51.684;6.954;2023-08-06T05:12:21;21.27;;;5.17;;
6269;SDS011;3168;51.684;6.954;2023-08-06T05:14:47;6.50;;;4.80;;
6269;SDS011;3168;51.684;6.954;2023-08-06T05:17:13;5.10;;;4.60;;
6269;SDS011;3168;51.684;6.954;2023-08-06T05:19:39;4.80;;;4.50;;
6269;SDS011;3168;51.684;6.954;2023-08-06T05:22:05;5.30;;;4.80;;
6269;SDS011;3168;51.684;6.954;2023-08-06T05:24:30;5.63;;;4.70;;
6269;SDS011;3168;51.684;6.954;2023-08-06T05:26:56;5.00;;;4.80;;
6269;SDS011;3168;51.684;6.954;2023-08-06T05:29:22;5.07;;;4.78;;
6269;SDS011;3168;51.684;6.954;2023-08-06T05:31:48;4.57;;;4.27;;
6269;SDS011;3168;51.684;6.954;2023-08-06T05:34:14;6.87;;;5.27;;
6269;SDS011;3168;51.684;6.954;2023-08-06T05:36:39;5.70;;;5.30;;
6269;SDS011;3168;51.684;6.954;2023-08-06T05:39:05;8.20;;;4.97;;
6269;SDS011;3168;51.684;6.954;2023-08-06T05:41:32;7.23;;;5.37;;
6269;SDS011;3168;51.684;6.954;2023-08-06T05:43:57;6.20;;;5.37;;
6269;SDS011;3168;51.684;6.954;2023-08-06T05:46:23;6.00;;;5.60;;
6269;SDS011;3168;51.684;6.954;2023-08-06T05:48:49;4.70;;;4.47;;
6269;SDS011;3168;51.684;6.954;2023-08-06T05:51:15;5.73;;;5.10;;
6269;SDS011;3168;51.684;6.954;2023-08-06T05:53:40;5.57;;;5.10;;
6269;SDS011;3168;51.684;6.954;2023-08-06T05:56:06;5.50;;;5.20;;
6269;SDS011;3168;51.684;6.954;2023-08-06T05:58:32;4.20;;;4.00;;
6269;SDS011;3168;51.684;6.954;2023-08-06T06:00:58;4.30;;;4.03;;
6269;SDS011;3168;51.684;6.954;2023-08-06T06:03:23;5.07;;;4.40;;
6269;SDS011;3168;51.684;6.954;2023-08-06T06:05:49;7.33;;;5.33;;
6269;SDS011;3168;51.684;6.954;2023-08-06T06:08:15;5.73;;;5.27;;
6269;SDS011;3168;51.684;6.954;2023-08-06T06:10:41;5.03;;;4.67;;
6269;SDS011;3168;51.684;6.954;2023-08-06T06:13:07;5.00;;;4.70;;
6269;SDS011;3168;51.684;6.954;2023-08-06T06:15:32;10.57;;;3.50;;
6269;SDS011;3168;51.684;6.954;2023-08-06T06:17:58;3.70;;;3.50;;
6269;SDS011;3168;51.684;6.954;2023-08-06T06:20:24;4.00;;;3.70;;
6269;SDS011;3168;51.684;6.954;2023-08-06T06:22:50;8.27;;;4.70;;
6269;SDS011;3168;51.684;6.954;2023-08-06T06:25:15;10.37;;;4.77;;
6269;SDS011;3168;51.684;6.954;2023-08-06T06:27:41;3.90;;;3.70;;
6269;SDS011;3168;51.684;6.954;2023-08-06T06:30:07;4.33;;;4.03;;
6269;SDS011;3168;51.684;6.954;2023-08-06T06:32:34;3.83;;;3.63;;
6269;SDS011;3168;51.684;6.954;2023-08-06T06:34:59;7.90;;;5.03;;
6269;SDS011;3168;51.684;6.954;2023-08-06T06:37:25;4.87;;;4.43;;
6269;SDS011;3168;51.684;6.954;2023-08-06T06:39:51;9.20;;;3.90;;
6269;SDS011;3168;51.684;6.954;2023-08-06T06:42:17;2.97;;;2.87;;
6269;SDS011;3168;51.684;6.954;2023-08-06T06:44:42;3.93;;;3.73;;
6269;SDS011;3168;51.684;6.954;2023-08-06T06:47:08;7.20;;;4.20;;
6269;SDS011;3168;51.684;6.954;2023-08-06T06:49:34;4.30;;;4.00;;
6269;SDS011;3168;51.684;6.954;2023-08-06T06:52:00;3.70;;;3.50;;
6269;SDS011;3168;51.684;6.954;2023-08-06T06:54:26;4.47;;;4.17;;
6269;SDS011;3168;51.684;6.954;2023-08-06T06:56:51;3.70;;;3.40;;
6269;SDS011;3168;51.684;6.954;2023-08-06T06:59:17;3.70;;;3.50;;
6269;SDS011;3168;51.684;6.954;2023-08-06T07:01:43;6.47;;;4.30;;
6269;SDS011;3168;51.684;6.954;2023-08-06T07:04:09;4.60;;;4.27;;
6269;SDS011;3168;51.684;6.954;2023-08-06T07:06:35;6.60;;;3.50;;
6269;SDS011;3168;51.684;6.954;2023-08-06T07:09:01;2.97;;;2.80;;
6269;SDS011;3168;51.684;6.954;2023-08-06T07:11:27;3.70;;;3.50;;
6269;SDS011;3168;51.684;6.954;2023-08-06T07:13:56;4.17;;;3.33;;
6269;SDS011;3168;51.684;6.954;2023-08-06T07:16:21;2.90;;;2.70;;
6269;SDS011;3168;51.684;6.954;2023-08-06T07:18:47;2.77;;;2.57;;
6269;SDS011;3168;51.684;6.954;2023-08-06T07:21:13;3.20;;;3.10;;
6269;SDS011;3168;51.684;6.954;2023-08-06T07:23:38;3.03;;;2.33;;
6269;SDS011;3168;51.684;6.954;2023-08-06T07:26:04;2.50;;;2.50;;
6269;SDS011;3168;51.684;6.954;2023-08-06T07:28:30;2.67;;;2.57;;
6269;SDS011;3168;51.684;6.954;2023-08-06T07:30:56;1.80;;;1.70;;
6269;SDS011;3168;51.684;6.954;2023-08-06T07:33:22;2.30;;;2.20;;
6269;SDS011;3168;51.684;6.954;2023-08-06T07:35:47;2.23;;;2.13;;
6269;SDS011;3168;51.684;6.954;2023-08-06T07:38:14;9.63;;;3.43;;
6269;SDS011;3168;51.684;6.954;2023-08-06T07:40:40;2.13;;;2.10;;
6269;SDS011;3168;51.684;6.954;2023-08-06T07:43:06;2.83;;;1.90;;
6269;SDS011;3168;51.684;6.954;2023-08-06T07:45:34;3.33;;;2.23;;
6269;SDS011;3168;51.684;6.954;2023-08-06T07:48:00;2.27;;;2.17;;
6269;SDS011;3168;51.684;6.954;2023-08-06T07:50:26;2.00;;;1.90;;
6269;SDS011;3168;51.684;6.954;2023-08-06T07:52:51;3.33;;;2.27;;
6269;SDS011;3168;51.684;6.954;2023-08-06T07:55:17;2.10;;;2.10;;
6269;SDS011;3168;51.684;6.954;2023-08-06T07:57:43;2.30;;;2.20;;
6269;SDS011;3168;51.684;6.954;2023-08-06T08:00:09;1.70;;;1.60;;
6269;SDS011;3168;51.684;6.954;2023-08-06T08:02:35;3.50;;;1.77;;
6269;SDS011;3168;51.684;6.954;2023-08-06T08:05:01;9.60;;;2.10;;
6269;SDS011;3168;51.684;6.954;2023-08-06T08:07:26;1.80;;;1.70;;
6269;SDS011;3168;51.684;6.954;2023-08-06T08:09:52;2.60;;;2.03;;
6269;SDS011;3168;51.684;6.954;2023-08-06T08:12:18;2.20;;;2.10;;
6269;SDS011;3168;51.684;6.954;2023-08-06T08:14:44;2.20;;;2.10;;
6269;SDS011;3168;51.684;6.954;2023-08-06T08:17:10;1.70;;;1.60;;
6269;SDS011;3168;51.684;6.954;2023-08-06T08:19:35;1.50;;;1.50;;
6269;SDS011;3168;51.684;6.954;2023-08-06T08:22:01;1.53;;;1.43;;
6269;SDS011;3168;51.684;6.954;2023-08-06T08:24:27;2.40;;;1.40;;
6269;SDS011;3168;51.684;6.954;2023-08-06T08:26:53;1.40;;;1.40;;
6269;SDS011;3168;51.684;6.954;2023-08-06T08:29:19;2.00;;;1.70;;
6269;SDS011;3168;51.684;6.954;2023-08-06T08:31:44;1.63;;;1.63;;
6269;SDS011;3168;51.684;6.954;2023-08-06T08:34:10;1.77;;;1.67;;
6269;SDS011;3168;51.684;6.954;2023-08-06T08:36:36;2.03;;;1.93;;
6269;SDS011;3168;51.684;6.954;2023-08-06T08:39:02;1.57;;;1.57;;
6269;SDS011;3168;51.684;6.954;2023-08-06T08:41:28;2.57;;;2.50;;
6269;SDS011;3168;51.684;6.954;2023-08-06T08:43:54;2.20;;;2.10;;
6269;SDS011;3168;51.684;6.954;2023-08-06T08:46:19;2.23;;;2.13;;
6269;SDS011;3168;51.684;6.954;2023-08-06T08:48:45;2.50;;;2.17;;
6269;SDS011;3168;51.684;6.954;2023-08-06T08:51:11;2.37;;;2.37;;
6269;SDS011;3168;51.684;6.954;2023-08-06T08:53:37;4.33;;;3.93;;
6269;SDS011;3168;51.684;6.954;2023-08-06T08:56:03;4.10;;;3.80;;
6269;SDS011;3168;51.684;6.954;2023-08-06T08:58:29;4.80;;;4.27;;
6269;SDS011;3168;51.684;6.954;2023-08-06T09:00:54;3.90;;;3.80;;
6269;SDS011;3168;51.684;6.954;2023-08-06T09:03:20;6.50;;;4.70;;
6269;SDS011;3168;51.684;6.954;2023-08-06T09:05:47;4.80;;;4.60;;
6269;SDS011;3168;51.684;6.954;2023-08-06T09:08:13;18.83;;;5.20;;
6269;SDS011;3168;51.684;6.954;2023-08-06T09:10:38;5.60;;;5.20;;
6269;SDS011;3168;51.684;6.954;2023-08-06T09:13:03;5.43;;;5.13;;
6269;SDS011;3168;51.684;6.954;2023-08-06T09:15:29;5.33;;;4.93;;
6269;SDS011;3168;51.684;6.954;2023-08-06T09:17:55;5.60;;;5.20;;
6269;SDS011;3168;51.684;6.954;2023-08-06T09:20:21;5.20;;;4.97;;
6269;SDS011;3168;51.684;6.954;2023-08-06T09:22:46;4.83;;;4.60;;
6269;SDS011;3168;51.684;6.954;2023-08-06T09:25:13;5.20;;;4.17;;
6269;SDS011;3168;51.684;6.954;2023-08-06T09:27:38;4.50;;;4.10;;
6269;SDS011;3168;51.684;6.954;2023-08-06T09:30:04;3.73;;;3.63;;
6269;SDS011;3168;51.684;6.954;2023-08-06T09:32:44;4.70;;;4.37;;
6269;SDS011;3168;51.684;6.954;2023-08-06T09:35:15;4.47;;;4.17;;
6269;SDS011;3168;51.684;6.954;2023-08-06T09:37:40;3.50;;;3.30;;
6269;SDS011;3168;51.684;6.954;2023-08-06T09:40:23;5.43;;;5.13;;
6269;SDS011;3168;51.684;6.954;2023-08-06T09:42:36;4.40;;;4.20;;
6269;SDS011;3168;51.684;6.954;2023-08-06T09:45:05;4.93;;;4.53;;
6269;SDS011;3168;51.684;6.954;2023-08-06T09:47:24;4.90;;;4.70;;
6269;SDS011;3168;51.684;6.954;2023-08-06T09:49:50;5.00;;;4.70;;
6269;SDS011;3168;51.684;6.954;2023-08-06T09:52:16;5.23;;;3.23;;
6269;SDS011;3168;51.684;6.954;2023-08-06T09:54:43;3.53;;;3.43;;
6269;SDS011;3168;51.684;6.954;2023-08-06T09:57:08;3.40;;;3.23;;
6269;SDS011;3168;51.684;6.954;2023-08-06T09:59:33;3.70;;;3.50;;
6269;SDS011;3168;51.684;6.954;2023-08-06T10:01:59;4.13;;;3.80;;
6269;SDS011;3168;51.684;6.954;2023-08-06T10:04:25;4.20;;;4.10;;
6269;SDS011;3168;51.684;6.954;2023-08-06T10:06:51;3.70;;;3.53;;
6269;SDS011;3168;51.684;6.954;2023-08-06T10:09:16;10.23;;;4.20;;
6269;SDS011;3168;51.684;6.954;2023-08-06T10:11:42;3.90;;;3.77;;
6269;SDS011;3168;51.684;6.954;2023-08-06T10:14:08;3.60;;;3.50;;
6269;SDS011;3168;51.684;6.954;2023-08-06T10:16:34;5.50;;;3.83;;
6269;SDS011;3168;51.684;6.954;2023-08-06T10:18:59;4.37;;;3.80;;
6269;SDS011;3168;51.684;6.954;2023-08-06T10:21:25;3.67;;;3.37;;
6269;SDS011;3168;51.684;6.954;2023-08-06T10:23:53;8.10;;;3.03;;
6269;SDS011;3168;51.684;6.954;2023-08-06T10:26:19;2.90;;;2.80;;
6269;SDS011;3168;51.684;6.954;2023-08-06T10:28:44;5.90;;;4.03;;
6269;SDS011;3168;51.684;6.954;2023-08-06T10:31:10;3.07;;;2.97;;
6269;SDS011;3168;51.684;6.954;2023-08-06T10:33:41;4.43;;;4.00;;
6269;SDS011;3168;51.684;6.954;2023-08-06T10:36:08;2.90;;;2.80;;
6269;SDS011;3168;51.684;6.954;2023-08-06T10:38:33;3.63;;;3.43;;
6269;SDS011;3168;51.684;6.954;2023-08-06T10:41:00;3.20;;;3.10;;
6269;SDS011;3168;51.684;6.954;2023-08-06T10:43:27;3.43;;;3.23;;
6269;SDS011;3168;51.684;6.954;2023-08-06T10:46:02;3.07;;;2.97;;
6269;SDS011;3168;51.684;6.954;2023-08-06T10:48:28;4.33;;;4.03;;
6269;SDS011;3168;51.684;6.954;2023-08-06T10:50:54;4.10;;;3.80;;
6269;SDS011;3168;51.684;6.954;2023-08-06T10:53:21;3.43;;;3.33;;
6269;SDS011;3168;51.684;6.954;2023-08-06T10:55:47;3.60;;;3.50;;
6269;SDS011;3168;51.684;6.954;2023-08-06T10:58:14;3.40;;;3.30;;
6269;SDS011;3168;51.684;6.954;2023-08-06T11:00:40;3.23;;;3.03;;
6269;SDS011;3168;51.684;6.954;2023-08-06T11:03:06;3.17;;;3.00;;
6269;SDS011;3168;51.684;6.954;2023-08-06T11:05:31;2.40;;;2.30;;
6269;SDS011;3168;51.684;6.954;2023-08-06T11:07:57;2.57;;;2.50;;
6269;SDS011;3168;51.684;6.954;2023-08-06T11:10:23;3.20;;;3.10;;
6269;SDS011;3168;51.684;6.954;2023-08-06T11:12:49;2.43;;;2.33;;
6269;SDS011;3168;51.684;6.954;2023-08-06T11:15:14;2.70;;;2.50;;
6269;SDS011;3168;51.684;6.954;2023-08-06T11:17:41;3.07;;;2.77;;
6269;SDS011;3168;51.684;6.954;2023-08-06T11:20:06;2.80;;;2.60;;
6269;SDS011;3168;51.684;6.954;2023-08-06T11:22:32;3.50;;;3.40;;
6269;SDS011;3168;51.684;6.954;2023-08-06T11:24:58;10.57;;;3.00;;
6269;SDS011;3168;51.684;6.954;2023-08-06T11:27:25;3.13;;;2.90;;
6269;SDS011;3168;51.684;6.954;2023-08-06T11:29:50;3.27;;;3.17;;
6269;SDS011;3168;51.684;6.954;2023-08-06T11:32:15;3.20;;;3.10;;
6269;SDS011;3168;51.684;6.954;2023-08-06T11:34:41;3.20;;;3.00;;
6269;SDS011;3168;51.684;6.954;2023-08-06T11:37:07;3.47;;;3.33;;
6269;SDS011;3168;51.684;6.954;2023-08-06T11:39:33;3.20;;;3.10;;
6269;SDS011;3168;51.684;6.954;2023-08-06T11:41:59;3.23;;;3.10;;
6269;SDS011;3168;51.684;6.954;2023-08-06T11:44:24;4.23;;;3.93;;
6269;SDS011;3168;51.684;6.954;2023-08-06T11:46:51;4.00;;;3.90;;
6269;SDS011;3168;51.684;6.954;2023-08-06T11:49:17;4.87;;;4.57;;
6269;SDS011;3168;51.684;6.954;2023-08-06T11:51:44;3.67;;;3.47;;
6269;SDS011;3168;51.684;6.954;2023-08-06T11:54:09;3.87;;;3.70;;
6269;SDS011;3168;51.684;6.954;2023-08-06T11:56:35;4.10;;;3.80;;
6269;SDS011;3168;51.684;6.954;2023-08-06T11:59:00;4.57;;;4.33;;
6269;SDS011;3168;51.684;6.954;2023-08-06T12:01:26;4.43;;;4.23;;
6269;SDS011;3168;51.684;6.954;2023-08-06T12:03:52;3.70;;;3.50;;
6269;SDS011;3168;51.684;6.954;2023-08-06T12:06:18;3.10;;;3.00;;
6269;SDS011;3168;51.684;6.954;2023-08-06T12:08:43;3.47;;;3.27;;
6269;SDS011;3168;51.684;6.954;2023-08-06T12:11:09;5.53;;;4.20;;
6269;SDS011;3168;51.684;6.954;2023-08-06T12:13:35;2.27;;;2.17;;
6269;SDS011;3168;51.684;6.954;2023-08-06T12:16:01;2.03;;;1.93;;
6269;SDS011;3168;51.684;6.954;2023-08-06T12:18:27;6.53;;;1.40;;
6269;SDS011;3168;51.684;6.954;2023-08-06T12:20:52;1.80;;;1.80;;
6269;SDS011;3168;51.684;6.954;2023-08-06T12:23:18;1.40;;;1.30;;
6269;SDS011;3168;51.684;6.954;2023-08-06T12:25:45;0.97;;;0.97;;
6269;SDS011;3168;51.684;6.954;2023-08-06T12:28:11;0.83;;;0.83;;
6269;SDS011;3168;51.684;6.954;2023-08-06T12:30:36;0.77;;;0.77;;
6269;SDS011;3168;51.684;6.954;2023-08-06T12:33:02;0.80;;;0.80;;
6269;SDS011;3168;51.684;6.954;2023-08-06T12:35:28;1.00;;;1.00;;
6269;SDS011;3168;51.684;6.954;2023-08-06T12:37:54;0.60;;;0.60;;
6269;SDS011;3168;51.684;6.954;2023-08-06T12:40:20;0.67;;;0.67;;
6269;SDS011;3168;51.684;6.954;2023-08-06T12:42:46;0.73;;;0.73;;
6269;SDS011;3168;51.684;6.954;2023-08-06T12:45:12;0.60;;;0.60;;
6269;SDS011;3168;51.684;6.954;2023-08-06T12:47:38;0.60;;;0.60;;
6269;SDS011;3168;51.684;6.954;2023-08-06T12:50:03;0.50;;;0.50;;
6269;SDS011;3168;51.684;6.954;2023-08-06T12:52:30;0.50;;;0.50;;
6269;SDS011;3168;51.684;6.954;2023-08-06T12:54:56;0.60;;;0.60;;
6269;SDS011;3168;51.684;6.954;2023-08-06T12:57:22;2.40;;;0.70;;
6269;SDS011;3168;51.684;6.954;2023-08-06T12:59:48;0.70;;;0.70;;
6269;SDS011;3168;51.684;6.954;2023-08-06T13:02:14;1.23;;;0.80;;
6269;SDS011;3168;51.684;6.954;2023-08-06T13:04:39;0.60;;;0.60;;
6269;SDS011;3168;51.684;6.954;2023-08-06T13:07:05;0.50;;;0.50;;
6269;SDS011;3168;51.684;6.954;2023-08-06T13:09:31;0.70;;;0.70;;
6269;SDS011;3168;51.684;6.954;2023-08-06T13:11:57;0.70;;;0.60;;
6269;SDS011;3168;51.684;6.954;2023-08-06T13:14:22;0.90;;;0.90;;
6269;SDS011;3168;51.684;6.954;2023-08-06T13:16:48;0.50;;;0.50;;
6269;SDS011;3168;51.684;6.954;2023-08-06T13:19:14;0.70;;;0.70;;
6269;SDS011;3168;51.684;6.954;2023-08-06T13:21:58;0.60;;;0.60;;
6269;SDS011;3168;51.684;6.954;2023-08-06T13:24:23;0.50;;;0.50;;
6269;SDS011;3168;51.684;6.954;2023-08-06T13:26:49;0.70;;;0.70;;
6269;SDS011;3168;51.684;6.954;2023-08-06T13:29:15;0.60;;;0.60;;
6269;SDS011;3168;51.684;6.954;2023-08-06T13:31:41;0.67;;;0.67;;
6269;SDS011;3168;51.684;6.954;2023-08-06T13:34:06;0.70;;;0.70;;
6269;SDS011;3168;51.684;6.954;2023-08-06T13:36:32;0.60;;;0.60;;
6269;SDS011;3168;51.684;6.954;2023-08-06T13:38:58;0.60;;;0.60;;
6269;SDS011;3168;51.684;6.954;2023-08-06T13:41:24;0.70;;;0.70;;
6269;SDS011;3168;51.684;6.954;2023-08-06T13:43:50;0.60;;;0.60;;
6269;SDS011;3168;51.684;6.954;2023-08-06T13:46:17;0.70;;;0.70;;
6269;SDS011;3168;51.684;6.954;2023-08-06T13:48:42;0.60;;;0.60;;
6269;SDS011;3168;51.684;6.954;2023-08-06T13:51:08;0.60;;;0.60;;
6269;SDS011;3168;51.684;6.954;2023-08-06T13:53:34;0.80;;;0.80;;
6269;SDS011;3168;51.684;6.954;2023-08-06T13:55:59;0.90;;;0.90;;
6269;SDS011;3168;51.684;6.954;2023-08-06T13:58:25;0.80;;;0.80;;
6269;SDS011;3168;51.684;6.954;2023-08-06T14:00:51;0.70;;;0.70;;
6269;SDS011;3168;51.684;6.954;2023-08-06T14:03:17;0.70;;;0.70;;
6269;SDS011;3168;51.684;6.954;2023-08-06T14:05:42;0.70;;;0.70;;
6269;SDS011;3168;51.684;6.954;2023-08-06T14:08:08;0.57;;;0.57;;
6269;SDS011;3168;51.684;6.954;2023-08-06T14:10:34;0.80;;;0.80;;
6269;SDS011;3168;51.684;6.954;2023-08-06T14:13:00;0.80;;;0.80;;
6269;SDS011;3168;51.684;6.954;2023-08-06T14:15:25;0.70;;;0.70;;
6269;SDS011;3168;51.684;6.954;2023-08-06T14:17:51;1.00;;;1.00;;
6269;SDS011;3168;51.684;6.954;2023-08-06T14:20:17;0.80;;;0.80;;
6269;SDS011;3168;51.684;6.954;2023-08-06T14:22:43;0.83;;;0.83;;
6269;SDS011;3168;51.684;6.954;2023-08-06T14:25:08;0.63;;;0.63;;
6269;SDS011;3168;51.684;6.954;2023-08-06T14:27:34;0.70;;;0.70;;
6269;SDS011;3168;51.684;6.954;2023-08-06T14:30:00;0.70;;;0.70;;
6269;SDS011;3168;51.684;6.954;2023-08-06T14:32:26;0.80;;;0.80;;
6269;SDS011;3168;51.684;6.954;2023-08-06T14:34:51;0.90;;;0.90;;
6269;SDS011;3168;51.684;6.954;2023-08-06T14:37:17;0.90;;;0.90;;
6269;SDS011;3168;51.684;6.954;2023-08-06T14:39:50;1.00;;;1.00;;
6269;SDS011;3168;51.684;6.954;2023-08-06T14:42:16;1.17;;;1.17;;
6269;SDS011;3168;51.684;6.954;2023-08-06T14:44:42;0.80;;;0.80;;
6269;SDS011;3168;51.684;6.954;2023-08-06T14:47:08;0.77;;;0.77;;
6269;SDS011;3168;51.684;6.954;2023-08-06T14:49:33;0.80;;;0.80;;
6269;SDS011;3168;51.684;6.954;2023-08-06T14:51:59;1.67;;;0.97;;
6269;SDS011;3168;51.684;6.954;2023-08-06T14:54:25;0.80;;;0.80;;
6269;SDS011;3168;51.684;6.954;2023-08-06T14:56:50;1.23;;;1.23;;
6269;SDS011;3168;51.684;6.954;2023-08-06T14:59:16;1.10;;;1.10;;
6269;SDS011;3168;51.684;6.954;2023-08-06T15:01:42;1.13;;;1.13;;
6269;SDS011;3168;51.684;6.954;2023-08-06T15:04:08;1.00;;;1.00;;
6269;SDS011;3168;51.684;6.954;2023-08-06T15:06:34;0.87;;;0.87;;